sensor_id;sensor_type;location;lat;lon;timestamp;temperature;humidity
76104;HTU21D;64831;44.870;37.336;2023-05-10T00:02:07;9.79;84.16
76104;HTU21D;64831;44.870;37.336;2023-05-10T00:04:33;9.79;84.16
76104;HTU21D;64831;44.870;37.336;2023-05-10T00:06:59;9.76;84.13
76104;HTU21D;64831;44.870;37.336;2023-05-10T00:09:25;9.74;84.10
76104;HTU21D;64831;44.870;37.336;2023-05-10T00:11:51;9.70;84.10
76104;HTU21D;64831;44.870;37.336;2023-05-10T00:14:17;9.70;84.12
76104;HTU21D;64831;44.870;37.336;2023-05-10T00:16:42;9.67;84.19
76104;HTU21D;64831;44.870;37.336;2023-05-10T00:19:08;9.66;84.26
76104;HTU21D;64831;44.870;37.336;2023-05-10T00:21:35;9.66;84.29
76104;HTU21D;64831;44.870;37.336;2023-05-10T00:24:01;9.65;84.32
76104;HTU21D;64831;44.870;37.336;2023-05-10T00:26:26;9.63;84.29
76104;HTU21D;64831;44.870;37.336;2023-05-10T00:28:54;9.62;84.29
76104;HTU21D;64831;44.870;37.336;2023-05-10T00:31:21;9.63;84.32
76104;HTU21D;64831;44.870;37.336;2023-05-10T00:33:46;9.62;84.34
76104;HTU21D;64831;44.870;37.336;2023-05-10T00:36:12;9.63;84.35
76104;HTU21D;64831;44.870;37.336;2023-05-10T00:38:40;9.64;84.35
76104;HTU21D;64831;44.870;37.336;2023-05-10T00:41:06;9.64;84.39
76104;HTU21D;64831;44.870;37.336;2023-05-10T00:43:34;9.65;84.34
76104;HTU21D;64831;44.870;37.336;2023-05-10T00:46:00;9.66;84.32
76104;HTU21D;64831;44.870;37.336;2023-05-10T00:48:26;9.65;84.26
76104;HTU21D;64831;44.870;37.336;2023-05-10T00:50:54;9.66;84.25
76104;HTU21D;64831;44.870;37.336;2023-05-10T00:53:20;9.67;84.26
76104;HTU21D;64831;44.870;37.336;2023-05-10T00:55:46;9.68;84.29
76104;HTU21D;64831;44.870;37.336;2023-05-10T00:58:12;9.69;84.28
76104;HTU21D;64831;44.870;37.336;2023-05-10T01:00:41;9.69;84.37
76104;HTU21D;64831;44.870;37.336;2023-05-10T01:03:09;9.67;84.73
76104;HTU21D;64831;44.870;37.336;2023-05-10T01:05:35;9.64;84.93
76104;HTU21D;64831;44.870;37.336;2023-05-10T01:08:01;9.63;85.20
76104;HTU21D;64831;44.870;37.336;2023-05-10T01:10:30;9.63;85.42
76104;HTU21D;64831;44.870;37.336;2023-05-10T01:12:56;9.64;85.55
76104;HTU21D;64831;44.870;37.336;2023-05-10T01:15:22;9.65;85.58
76104;HTU21D;64831;44.870;37.336;2023-05-10T01:17:48;9.69;85.45
76104;HTU21D;64831;44.870;37.336;2023-05-10T01:20:15;9.74;85.27
76104;HTU21D;64831;44.870;37.336;2023-05-10T01:25:48;9.85;85.13
76104;HTU21D;64831;44.870;37.336;2023-05-10T01:32:21;9.93;84.74
76104;HTU21D;64831;44.870;37.336;2023-05-10T01:34:28;9.96;84.66
76104;HTU21D;64831;44.870;37.336;2023-05-10T01:36:58;9.96;84.64
76104;HTU21D;64831;44.870;37.336;2023-05-10T01:39:50;9.99;84.52
76104;HTU21D;64831;44.870;37.336;2023-05-10T01:42:23;9.99;84.46
76104;HTU21D;64831;44.870;37.336;2023-05-10T01:45:00;10.00;84.41
76104;HTU21D;64831;44.870;37.336;2023-05-10T01:47:37;9.98;84.45
76104;HTU21D;64831;44.870;37.336;2023-05-10T01:50:08;9.94;84.61
76104;HTU21D;64831;44.870;37.336;2023-05-10T01:52:42;9.90;84.68
76104;HTU21D;64831;44.870;37.336;2023-05-10T01:55:15;9.85;84.86
76104;HTU21D;64831;44.870;37.336;2023-05-10T01:57:44;9.83;84.90
76104;HTU21D;64831;44.870;37.336;2023-05-10T02:00:13;9.82;84.87
76104;HTU21D;64831;44.870;37.336;2023-05-10T02:02:42;9.82;84.97
76104;HTU21D;64831;44.870;37.336;2023-05-10T02:05:12;9.82;84.90
76104;HTU21D;64831;44.870;37.336;2023-05-10T02:07:39;9.81;84.86
76104;HTU21D;64831;44.870;37.336;2023-05-10T02:10:07;9.80;84.83
76104;HTU21D;64831;44.870;37.336;2023-05-10T02:12:36;9.79;84.67
76104;HTU21D;64831;44.870;37.336;2023-05-10T02:15:05;9.79;84.58
76104;HTU21D;64831;44.870;37.336;2023-05-10T02:17:32;9.79;84.66
76104;HTU21D;64831;44.870;37.336;2023-05-10T02:19:59;9.78;84.65
76104;HTU21D;64831;44.870;37.336;2023-05-10T02:22:27;9.75;84.87
76104;HTU21D;64831;44.870;37.336;2023-05-10T02:24:55;9.74;84.91
76104;HTU21D;64831;44.870;37.336;2023-05-10T02:27:24;9.75;85.00
76104;HTU21D;64831;44.870;37.336;2023-05-10T02:29:51;9.72;85.03
76104;HTU21D;64831;44.870;37.336;2023-05-10T02:32:18;9.72;85.09
76104;HTU21D;64831;44.870;37.336;2023-05-10T02:34:45;9.70;85.31
76104;HTU21D;64831;44.870;37.336;2023-05-10T02:37:19;9.69;85.29
76104;HTU21D;64831;44.870;37.336;2023-05-10T02:39:49;9.69;85.35
76104;HTU21D;64831;44.870;37.336;2023-05-10T02:42:18;9.70;85.28
76104;HTU21D;64831;44.870;37.336;2023-05-10T02:44:48;9.70;85.26
76104;HTU21D;64831;44.870;37.336;2023-05-10T02:47:15;9.70;85.51
76104;HTU21D;64831;44.870;37.336;2023-05-10T02:49:41;9.67;85.62
76104;HTU21D;64831;44.870;37.336;2023-05-10T02:52:08;9.65;85.98
76104;HTU21D;64831;44.870;37.336;2023-05-10T02:54:49;9.64;86.19
76104;HTU21D;64831;44.870;37.336;2023-05-10T02:57:17;9.62;86.28
76104;HTU21D;64831;44.870;37.336;2023-05-10T02:59:46;9.61;86.29
76104;HTU21D;64831;44.870;37.336;2023-05-10T03:02:12;9.63;86.16
76104;HTU21D;64831;44.870;37.336;2023-05-10T03:04:38;9.65;85.96
76104;HTU21D;64831;44.870;37.336;2023-05-10T03:07:04;9.64;85.80
76104;HTU21D;64831;44.870;37.336;2023-05-10T03:09:31;9.65;85.75
76104;HTU21D;64831;44.870;37.336;2023-05-10T03:12:14;9.66;85.80
76104;HTU21D;64831;44.870;37.336;2023-05-10T03:17:57;9.66;86.16
76104;HTU21D;64831;44.870;37.336;2023-05-10T03:20:29;9.65;86.20
76104;HTU21D;64831;44.870;37.336;2023-05-10T03:23:04;9.66;86.20
76104;HTU21D;64831;44.870;37.336;2023-05-10T03:25:31;9.68;86.27
76104;HTU21D;64831;44.870;37.336;2023-05-10T03:27:58;9.71;86.12
76104;HTU21D;64831;44.870;37.336;2023-05-10T03:30:26;9.74;86.05
76104;HTU21D;64831;44.870;37.336;2023-05-10T03:32:53;9.77;85.99
76104;HTU21D;64831;44.870;37.336;2023-05-10T03:35:19;9.78;85.94
76104;HTU21D;64831;44.870;37.336;2023-05-10T03:37:45;9.80;85.87
76104;HTU21D;64831;44.870;37.336;2023-05-10T03:40:13;9.81;85.68
76104;HTU21D;64831;44.870;37.336;2023-05-10T03:42:41;9.82;85.58
76104;HTU21D;64831;44.870;37.336;2023-05-10T03:45:07;9.85;85.50
76104;HTU21D;64831;44.870;37.336;2023-05-10T03:47:34;9.86;85.42
76104;HTU21D;64831;44.870;37.336;2023-05-10T03:50:00;9.85;85.25
76104;HTU21D;64831;44.870;37.336;2023-05-10T03:52:26;9.85;85.19
76104;HTU21D;64831;44.870;37.336;2023-05-10T03:54:51;9.89;85.19
76104;HTU21D;64831;44.870;37.336;2023-05-10T03:57:17;9.93;85.16
76104;HTU21D;64831;44.870;37.336;2023-05-10T03:59:43;9.97;85.09
76104;HTU21D;64831;44.870;37.336;2023-05-10T04:02:09;9.98;84.93
76104;HTU21D;64831;44.870;37.336;2023-05-10T04:04:35;10.01;84.81
76104;HTU21D;64831;44.870;37.336;2023-05-10T04:07:01;10.03;84.70
76104;HTU21D;64831;44.870;37.336;2023-05-10T04:09:28;10.06;84.68
76104;HTU21D;64831;44.870;37.336;2023-05-10T04:11:54;10.05;84.63
76104;HTU21D;64831;44.870;37.336;2023-05-10T04:14:20;10.03;84.59
76104;HTU21D;64831;44.870;37.336;2023-05-10T04:16:46;9.98;84.55
76104;HTU21D;64831;44.870;37.336;2023-05-10T04:19:12;10.01;84.64
76104;HTU21D;64831;44.870;37.336;2023-05-10T04:21:37;10.04;84.73
76104;HTU21D;64831;44.870;37.336;2023-05-10T04:24:03;10.07;84.61
76104;HTU21D;64831;44.870;37.336;2023-05-10T04:26:29;10.07;84.35
76104;HTU21D;64831;44.870;37.336;2023-05-10T04:28:55;10.10;84.23
76104;HTU21D;64831;44.870;37.336;2023-05-10T04:31:21;10.16;84.19
76104;HTU21D;64831;44.870;37.336;2023-05-10T04:33:47;10.23;83.97
76104;HTU21D;64831;44.870;37.336;2023-05-10T04:36:13;10.28;83.97
76104;HTU21D;64831;44.870;37.336;2023-05-10T04:38:39;10.35;83.72
76104;HTU21D;64831;44.870;37.336;2023-05-10T04:41:07;10.39;83.42
76104;HTU21D;64831;44.870;37.336;2023-05-10T04:43:34;10.46;83.42
76104;HTU21D;64831;44.870;37.336;2023-05-10T04:46:00;10.55;83.51
76104;HTU21D;64831;44.870;37.336;2023-05-10T04:48:27;10.60;83.33
76104;HTU21D;64831;44.870;37.336;2023-05-10T04:50:53;10.62;82.93
76104;HTU21D;64831;44.870;37.336;2023-05-10T04:53:19;10.69;83.00
76104;HTU21D;64831;44.870;37.336;2023-05-10T04:55:44;10.71;82.86
76104;HTU21D;64831;44.870;37.336;2023-05-10T04:58:11;10.75;82.84
76104;HTU21D;64831;44.870;37.336;2023-05-10T05:00:37;10.85;82.56
76104;HTU21D;64831;44.870;37.336;2023-05-10T05:03:03;10.92;82.16
76104;HTU21D;64831;44.870;37.336;2023-05-10T05:05:29;10.96;81.88
76104;HTU21D;64831;44.870;37.336;2023-05-10T05:07:55;10.95;81.12
76104;HTU21D;64831;44.870;37.336;2023-05-10T05:10:21;10.96;81.13
76104;HTU21D;64831;44.870;37.336;2023-05-10T05:12:46;11.05;81.61
76104;HTU21D;64831;44.870;37.336;2023-05-10T05:15:12;11.13;81.19
76104;HTU21D;64831;44.870;37.336;2023-05-10T05:17:38;11.24;80.65
76104;HTU21D;64831;44.870;37.336;2023-05-10T05:20:05;11.29;80.36
76104;HTU21D;64831;44.870;37.336;2023-05-10T05:22:31;11.31;79.78
76104;HTU21D;64831;44.870;37.336;2023-05-10T05:24:57;11.39;80.32
76104;HTU21D;64831;44.870;37.336;2023-05-10T05:27:28;11.43;79.56
76104;HTU21D;64831;44.870;37.336;2023-05-10T05:29:57;11.46;78.75
76104;HTU21D;64831;44.870;37.336;2023-05-10T05:32:24;11.54;79.17
76104;HTU21D;64831;44.870;37.336;2023-05-10T05:34:50;11.59;78.94
76104;HTU21D;64831;44.870;37.336;2023-05-10T05:37:20;11.68;79.54
76104;HTU21D;64831;44.870;37.336;2023-05-10T05:39:47;11.78;78.57
76104;HTU21D;64831;44.870;37.336;2023-05-10T05:42:13;11.90;78.50
76104;HTU21D;64831;44.870;37.336;2023-05-10T05:44:40;12.00;78.37
76104;HTU21D;64831;44.870;37.336;2023-05-10T05:47:06;12.04;77.47
76104;HTU21D;64831;44.870;37.336;2023-05-10T05:49:32;12.16;78.03
76104;HTU21D;64831;44.870;37.336;2023-05-10T05:51:59;12.26;77.90
76104;HTU21D;64831;44.870;37.336;2023-05-10T05:54:26;12.32;77.70
76104;HTU21D;64831;44.870;37.336;2023-05-10T05:56:59;12.34;77.38
76104;HTU21D;64831;44.870;37.336;2023-05-10T05:59:26;12.32;76.67
76104;HTU21D;64831;44.870;37.336;2023-05-10T06:01:52;12.29;76.53
76104;HTU21D;64831;44.870;37.336;2023-05-10T06:04:18;12.23;76.45
76104;HTU21D;64831;44.870;37.336;2023-05-10T06:06:44;12.18;76.22
76104;HTU21D;64831;44.870;37.336;2023-05-10T06:09:11;12.15;76.18
76104;HTU21D;64831;44.870;37.336;2023-05-10T06:11:37;12.13;76.16
76104;HTU21D;64831;44.870;37.336;2023-05-10T06:14:04;12.17;76.60
76104;HTU21D;64831;44.870;37.336;2023-05-10T06:16:34;12.45;77.02
76104;HTU21D;64831;44.870;37.336;2023-05-10T06:19:00;12.67;75.67
76104;HTU21D;64831;44.870;37.336;2023-05-10T06:21:26;12.85;75.38
76104;HTU21D;64831;44.870;37.336;2023-05-10T06:23:51;13.03;74.97
76104;HTU21D;64831;44.870;37.336;2023-05-10T06:26:17;13.11;73.84
76104;HTU21D;64831;44.870;37.336;2023-05-10T06:28:43;13.15;73.48
76104;HTU21D;64831;44.870;37.336;2023-05-10T06:31:09;13.17;73.46
76104;HTU21D;64831;44.870;37.336;2023-05-10T06:33:37;13.14;72.16
76104;HTU21D;64831;44.870;37.336;2023-05-10T06:36:03;13.15;72.54
76104;HTU21D;64831;44.870;37.336;2023-05-10T06:38:29;13.10;71.97
76104;HTU21D;64831;44.870;37.336;2023-05-10T06:40:55;13.06;71.91
76104;HTU21D;64831;44.870;37.336;2023-05-10T06:43:21;12.94;71.13
76104;HTU21D;64831;44.870;37.336;2023-05-10T06:45:48;12.78;70.61
76104;HTU21D;64831;44.870;37.336;2023-05-10T06:48:13;12.69;71.07
76104;HTU21D;64831;44.870;37.336;2023-05-10T06:50:39;12.59;70.67
76104;HTU21D;64831;44.870;37.336;2023-05-10T06:53:05;12.48;70.62
76104;HTU21D;64831;44.870;37.336;2023-05-10T06:55:31;12.32;70.31
76104;HTU21D;64831;44.870;37.336;2023-05-10T06:57:57;12.16;70.13
76104;HTU21D;64831;44.870;37.336;2023-05-10T07:00:23;11.98;70.50
76104;HTU21D;64831;44.870;37.336;2023-05-10T07:02:49;11.88;71.03
76104;HTU21D;64831;44.870;37.336;2023-05-10T07:05:15;11.85;71.57
76104;HTU21D;64831;44.870;37.336;2023-05-10T07:07:41;11.84;71.77
76104;HTU21D;64831;44.870;37.336;2023-05-10T07:10:07;11.79;71.55
76104;HTU21D;64831;44.870;37.336;2023-05-10T07:12:33;11.82;71.95
76104;HTU21D;64831;44.870;37.336;2023-05-10T07:14:59;11.84;72.03
76104;HTU21D;64831;44.870;37.336;2023-05-10T07:17:25;11.90;72.38
76104;HTU21D;64831;44.870;37.336;2023-05-10T07:19:51;11.93;71.59
76104;HTU21D;64831;44.870;37.336;2023-05-10T07:22:17;11.94;71.14
76104;HTU21D;64831;44.870;37.336;2023-05-10T07:24:43;11.93;70.65
76104;HTU21D;64831;44.870;37.336;2023-05-10T07:27:09;11.98;70.55
76104;HTU21D;64831;44.870;37.336;2023-05-10T07:29:35;12.00;70.16
76104;HTU21D;64831;44.870;37.336;2023-05-10T07:32:01;12.11;70.90
76104;HTU21D;64831;44.870;37.336;2023-05-10T07:34:27;12.23;70.72
76104;HTU21D;64831;44.870;37.336;2023-05-10T07:36:57;12.38;70.68
76104;HTU21D;64831;44.870;37.336;2023-05-10T07:39:23;12.59;70.97
76104;HTU21D;64831;44.870;37.336;2023-05-10T07:41:49;12.79;70.89
76104;HTU21D;64831;44.870;37.336;2023-05-10T07:44:15;12.96;69.16
76104;HTU21D;64831;44.870;37.336;2023-05-10T07:46:43;13.19;69.92
76104;HTU21D;64831;44.870;37.336;2023-05-10T07:49:09;13.48;69.81
76104;HTU21D;64831;44.870;37.336;2023-05-10T07:51:35;13.88;68.05
76104;HTU21D;64831;44.870;37.336;2023-05-10T07:54:01;14.48;68.03
76104;HTU21D;64831;44.870;37.336;2023-05-10T07:56:29;15.22;67.16
76104;HTU21D;64831;44.870;37.336;2023-05-10T07:58:56;15.86;66.43
76104;HTU21D;64831;44.870;37.336;2023-05-10T08:01:22;16.44;65.33
76104;HTU21D;64831;44.870;37.336;2023-05-10T08:03:49;17.13;63.10
76104;HTU21D;64831;44.870;37.336;2023-05-10T08:06:18;17.82;62.47
76104;HTU21D;64831;44.870;37.336;2023-05-10T08:08:46;18.33;56.71
76104;HTU21D;64831;44.870;37.336;2023-05-10T08:11:17;18.55;57.52
76104;HTU21D;64831;44.870;37.336;2023-05-10T08:13:48;18.62;57.06
76104;HTU21D;64831;44.870;37.336;2023-05-10T08:16:14;18.37;53.99
76104;HTU21D;64831;44.870;37.336;2023-05-10T08:18:40;17.87;54.10
76104;HTU21D;64831;44.870;37.336;2023-05-10T08:21:06;17.40;54.55
76104;HTU21D;64831;44.870;37.336;2023-05-10T08:23:32;17.00;55.17
76104;HTU21D;64831;44.870;37.336;2023-05-10T08:25:59;16.67;55.54
76104;HTU21D;64831;44.870;37.336;2023-05-10T08:28:25;16.29;56.06
76104;HTU21D;64831;44.870;37.336;2023-05-10T08:30:51;15.95;56.79
76104;HTU21D;64831;44.870;37.336;2023-05-10T08:33:18;15.58;57.23
76104;HTU21D;64831;44.870;37.336;2023-05-10T08:35:44;15.32;57.85
76104;HTU21D;64831;44.870;37.336;2023-05-10T08:38:10;14.95;58.50
76104;HTU21D;64831;44.870;37.336;2023-05-10T08:40:43;14.66;59.32
76104;HTU21D;64831;44.870;37.336;2023-05-10T08:43:12;14.45;60.13
76104;HTU21D;64831;44.870;37.336;2023-05-10T08:45:48;14.36;60.71
76104;HTU21D;64831;44.870;37.336;2023-05-10T08:48:15;14.27;60.81
76104;HTU21D;64831;44.870;37.336;2023-05-10T08:50:42;14.27;61.22
76104;HTU21D;64831;44.870;37.336;2023-05-10T08:53:12;14.26;60.93
76104;HTU21D;64831;44.870;37.336;2023-05-10T08:55:40;14.32;60.64
76104;HTU21D;64831;44.870;37.336;2023-05-10T08:58:09;14.38;60.67
76104;HTU21D;64831;44.870;37.336;2023-05-10T09:00:35;14.53;60.76
76104;HTU21D;64831;44.870;37.336;2023-05-10T09:03:04;14.82;61.38
76104;HTU21D;64831;44.870;37.336;2023-05-10T09:05:30;15.03;59.13
76104;HTU21D;64831;44.870;37.336;2023-05-10T09:07:56;14.96;57.85
76104;HTU21D;64831;44.870;37.336;2023-05-10T09:10:23;14.80;57.47
76104;HTU21D;64831;44.870;37.336;2023-05-10T09:12:51;14.67;57.54
76104;HTU21D;64831;44.870;37.336;2023-05-10T09:15:18;14.56;57.82
76104;HTU21D;64831;44.870;37.336;2023-05-10T09:17:46;14.51;58.44
76104;HTU21D;64831;44.870;37.336;2023-05-10T09:20:12;14.53;58.44
76104;HTU21D;64831;44.870;37.336;2023-05-10T09:22:39;14.60;58.90
76104;HTU21D;64831;44.870;37.336;2023-05-10T09:27:38;14.73;58.73
76104;HTU21D;64831;44.870;37.336;2023-05-10T09:30:05;14.72;58.58
76104;HTU21D;64831;44.870;37.336;2023-05-10T09:32:42;14.66;58.69
76104;HTU21D;64831;44.870;37.336;2023-05-10T09:35:16;14.47;58.32
76104;HTU21D;64831;44.870;37.336;2023-05-10T09:37:44;14.38;58.67
76104;HTU21D;64831;44.870;37.336;2023-05-10T09:40:13;14.24;58.90
76104;HTU21D;64831;44.870;37.336;2023-05-10T09:42:42;14.22;59.69
76104;HTU21D;64831;44.870;37.336;2023-05-10T09:45:09;14.27;60.34
76104;HTU21D;64831;44.870;37.336;2023-05-10T09:47:35;14.52;61.33
76104;HTU21D;64831;44.870;37.336;2023-05-10T09:50:03;14.87;61.72
76104;HTU21D;64831;44.870;37.336;2023-05-10T09:52:31;15.42;61.50
76104;HTU21D;64831;44.870;37.336;2023-05-10T09:55:11;16.10;60.55
76104;HTU21D;64831;44.870;37.336;2023-05-10T09:57:37;16.64;59.19
76104;HTU21D;64831;44.870;37.336;2023-05-10T10:00:04;17.05;56.69
76104;HTU21D;64831;44.870;37.336;2023-05-10T10:02:39;17.14;56.09
76104;HTU21D;64831;44.870;37.336;2023-05-10T10:05:06;17.14;55.64
76104;HTU21D;64831;44.870;37.336;2023-05-10T10:07:32;17.11;54.54
76104;HTU21D;64831;44.870;37.336;2023-05-10T10:10:00;17.05;54.46
76104;HTU21D;64831;44.870;37.336;2023-05-10T10:12:26;16.90;53.87
76104;HTU21D;64831;44.870;37.336;2023-05-10T10:14:52;16.76;53.61
76104;HTU21D;64831;44.870;37.336;2023-05-10T10:17:19;16.73;54.04
76104;HTU21D;64831;44.870;37.336;2023-05-10T10:19:45;16.64;53.21
76104;HTU21D;64831;44.870;37.336;2023-05-10T10:22:11;16.60;53.49
76104;HTU21D;64831;44.870;37.336;2023-05-10T10:24:38;16.63;53.59
76104;HTU21D;64831;44.870;37.336;2023-05-10T10:30:28;16.69;52.34
76104;HTU21D;64831;44.870;37.336;2023-05-10T10:35:29;17.06;53.14
76104;HTU21D;64831;44.870;37.336;2023-05-10T10:37:57;17.10;52.24
76104;HTU21D;64831;44.870;37.336;2023-05-10T10:40:31;16.77;51.40
76104;HTU21D;64831;44.870;37.336;2023-05-10T10:42:58;16.47;52.15
76104;HTU21D;64831;44.870;37.336;2023-05-10T10:48:32;16.37;53.06
76104;HTU21D;64831;44.870;37.336;2023-05-10T10:50:58;16.43;53.15
76104;HTU21D;64831;44.870;37.336;2023-05-10T10:53:27;16.54;52.97
76104;HTU21D;64831;44.870;37.336;2023-05-10T10:56:13;16.86;52.57
76104;HTU21D;64831;44.870;37.336;2023-05-10T10:58:42;17.19;52.77
76104;HTU21D;64831;44.870;37.336;2023-05-10T11:01:18;17.44;52.60
76104;HTU21D;64831;44.870;37.336;2023-05-10T11:06:32;17.38;51.04
76104;HTU21D;64831;44.870;37.336;2023-05-10T11:09:06;17.08;51.14
76104;HTU21D;64831;44.870;37.336;2023-05-10T11:11:34;16.75;51.46
76104;HTU21D;64831;44.870;37.336;2023-05-10T11:14:04;16.52;51.48
76104;HTU21D;64831;44.870;37.336;2023-05-10T11:16:44;16.43;51.56
76104;HTU21D;64831;44.870;37.336;2023-05-10T11:19:12;16.41;52.53
76104;HTU21D;64831;44.870;37.336;2023-05-10T11:24:31;16.42;52.18
76104;HTU21D;64831;44.870;37.336;2023-05-10T11:26:59;16.40;51.90
76104;HTU21D;64831;44.870;37.336;2023-05-10T11:29:26;16.44;52.54
76104;HTU21D;64831;44.870;37.336;2023-05-10T11:31:52;16.40;52.07
76104;HTU21D;64831;44.870;37.336;2023-05-10T11:34:29;16.39;51.43
76104;HTU21D;64831;44.870;37.336;2023-05-10T11:36:56;16.30;51.71
76104;HTU21D;64831;44.870;37.336;2023-05-10T11:39:30;16.31;51.47
76104;HTU21D;64831;44.870;37.336;2023-05-10T11:41:57;16.39;51.64
76104;HTU21D;64831;44.870;37.336;2023-05-10T11:44:33;16.43;50.83
76104;HTU21D;64831;44.870;37.336;2023-05-10T11:47:02;16.55;51.04
76104;HTU21D;64831;44.870;37.336;2023-05-10T11:49:28;16.63;50.53
76104;HTU21D;64831;44.870;37.336;2023-05-10T11:52:06;16.74;50.99
76104;HTU21D;64831;44.870;37.336;2023-05-10T11:54:32;16.67;50.19
76104;HTU21D;64831;44.870;37.336;2023-05-10T11:57:00;16.58;50.34
76104;HTU21D;64831;44.870;37.336;2023-05-10T11:59:26;16.55;50.44
76104;HTU21D;64831;44.870;37.336;2023-05-10T12:01:52;16.62;51.37
76104;HTU21D;64831;44.870;37.336;2023-05-10T12:04:18;16.63;50.46
76104;HTU21D;64831;44.870;37.336;2023-05-10T12:06:45;16.64;50.56
76104;HTU21D;64831;44.870;37.336;2023-05-10T12:09:12;16.65;50.86
76104;HTU21D;64831;44.870;37.336;2023-05-10T12:11:40;16.70;50.64
76104;HTU21D;64831;44.870;37.336;2023-05-10T12:14:07;16.67;50.49
76104;HTU21D;64831;44.870;37.336;2023-05-10T12:16:33;16.70;51.04
76104;HTU21D;64831;44.870;37.336;2023-05-10T12:19:00;16.76;51.17
76104;HTU21D;64831;44.870;37.336;2023-05-10T12:21:28;16.82;51.17
76104;HTU21D;64831;44.870;37.336;2023-05-10T12:23:56;16.80;50.90
76104;HTU21D;64831;44.870;37.336;2023-05-10T12:26:25;16.76;50.88
76104;HTU21D;64831;44.870;37.336;2023-05-10T12:28:54;16.55;50.43
76104;HTU21D;64831;44.870;37.336;2023-05-10T12:31:20;16.41;50.67
76104;HTU21D;64831;44.870;37.336;2023-05-10T12:33:46;16.26;50.73
76104;HTU21D;64831;44.870;37.336;2023-05-10T12:36:15;16.24;51.14
76104;HTU21D;64831;44.870;37.336;2023-05-10T12:38:44;16.33;51.55
76104;HTU21D;64831;44.870;37.336;2023-05-10T12:41:17;16.44;51.27
76104;HTU21D;64831;44.870;37.336;2023-05-10T12:43:44;16.36;50.24
76104;HTU21D;64831;44.870;37.336;2023-05-10T12:46:13;16.41;50.71
76104;HTU21D;64831;44.870;37.336;2023-05-10T12:48:41;16.44;50.70
76104;HTU21D;64831;44.870;37.336;2023-05-10T12:51:08;16.49;50.29
76104;HTU21D;64831;44.870;37.336;2023-05-10T12:53:35;16.48;49.79
76104;HTU21D;64831;44.870;37.336;2023-05-10T12:56:02;16.45;49.34
76104;HTU21D;64831;44.870;37.336;2023-05-10T12:58:28;16.40;49.03
76104;HTU21D;64831;44.870;37.336;2023-05-10T13:00:54;16.42;49.71
76104;HTU21D;64831;44.870;37.336;2023-05-10T13:03:22;16.44;49.84
76104;HTU21D;64831;44.870;37.336;2023-05-10T13:05:48;16.47;49.47
76104;HTU21D;64831;44.870;37.336;2023-05-10T13:08:14;16.45;49.50
76104;HTU21D;64831;44.870;37.336;2023-05-10T13:10:40;16.43;49.70
76104;HTU21D;64831;44.870;37.336;2023-05-10T13:13:06;16.27;48.72
76104;HTU21D;64831;44.870;37.336;2023-05-10T13:15:33;16.21;49.60
76104;HTU21D;64831;44.870;37.336;2023-05-10T13:17:59;16.17;49.15
76104;HTU21D;64831;44.870;37.336;2023-05-10T13:20:25;16.08;49.03
76104;HTU21D;64831;44.870;37.336;2023-05-10T13:22:52;16.04;49.34
76104;HTU21D;64831;44.870;37.336;2023-05-10T13:25:18;15.98;49.68
76104;HTU21D;64831;44.870;37.336;2023-05-10T13:27:44;15.95;49.65
76104;HTU21D;64831;44.870;37.336;2023-05-10T13:30:10;15.93;49.98
76104;HTU21D;64831;44.870;37.336;2023-05-10T13:32:37;15.92;49.79
76104;HTU21D;64831;44.870;37.336;2023-05-10T13:35:03;15.91;49.60
76104;HTU21D;64831;44.870;37.336;2023-05-10T13:37:30;15.89;49.75
76104;HTU21D;64831;44.870;37.336;2023-05-10T13:39:57;15.83;49.42
76104;HTU21D;64831;44.870;37.336;2023-05-10T13:42:23;15.82;49.87
76104;HTU21D;64831;44.870;37.336;2023-05-10T13:44:50;15.84;50.00
76104;HTU21D;64831;44.870;37.336;2023-05-10T13:47:16;15.81;49.79
76104;HTU21D;64831;44.870;37.336;2023-05-10T13:49:41;15.75;49.77
76104;HTU21D;64831;44.870;37.336;2023-05-10T13:52:08;15.67;49.78
76104;HTU21D;64831;44.870;37.336;2023-05-10T13:54:36;15.59;49.69
76104;HTU21D;64831;44.870;37.336;2023-05-10T13:57:02;15.48;49.69
76104;HTU21D;64831;44.870;37.336;2023-05-10T13:59:29;15.37;49.54
76104;HTU21D;64831;44.870;37.336;2023-05-10T14:01:57;15.22;49.50
76104;HTU21D;64831;44.870;37.336;2023-05-10T14:04:24;15.17;49.82
76104;HTU21D;64831;44.870;37.336;2023-05-10T14:06:50;15.13;49.99
76104;HTU21D;64831;44.870;37.336;2023-05-10T14:09:16;15.11;50.24
76104;HTU21D;64831;44.870;37.336;2023-05-10T14:11:42;15.14;50.67
76104;HTU21D;64831;44.870;37.336;2023-05-10T14:14:12;15.18;50.69
76104;HTU21D;64831;44.870;37.336;2023-05-10T14:16:42;15.26;50.43
76104;HTU21D;64831;44.870;37.336;2023-05-10T14:19:09;15.28;50.18
76104;HTU21D;64831;44.870;37.336;2023-05-10T14:21:35;15.24;49.95
76104;HTU21D;64831;44.870;37.336;2023-05-10T14:24:01;15.17;49.69
76104;HTU21D;64831;44.870;37.336;2023-05-10T14:26:27;15.06;49.38
76104;HTU21D;64831;44.870;37.336;2023-05-10T14:28:53;14.97;49.79
76104;HTU21D;64831;44.870;37.336;2023-05-10T14:31:19;14.88;49.69
76104;HTU21D;64831;44.870;37.336;2023-05-10T14:33:46;14.81;49.53
76104;HTU21D;64831;44.870;37.336;2023-05-10T14:36:13;14.72;49.71
76104;HTU21D;64831;44.870;37.336;2023-05-10T14:38:39;14.66;49.83
76104;HTU21D;64831;44.870;37.336;2023-05-10T14:41:06;14.62;50.12
76104;HTU21D;64831;44.870;37.336;2023-05-10T14:43:32;14.58;50.25
76104;HTU21D;64831;44.870;37.336;2023-05-10T14:45:58;14.52;50.03
76104;HTU21D;64831;44.870;37.336;2023-05-10T14:48:24;14.45;50.07
76104;HTU21D;64831;44.870;37.336;2023-05-10T14:50:50;14.41;50.22
76104;HTU21D;64831;44.870;37.336;2023-05-10T14:53:16;14.29;49.80
76104;HTU21D;64831;44.870;37.336;2023-05-10T14:55:42;14.26;50.18
76104;HTU21D;64831;44.870;37.336;2023-05-10T14:58:08;14.20;50.40
76104;HTU21D;64831;44.870;37.336;2023-05-10T15:00:34;14.13;50.63
76104;HTU21D;64831;44.870;37.336;2023-05-10T15:03:00;14.09;50.97
76104;HTU21D;64831;44.870;37.336;2023-05-10T15:05:25;14.07;51.06
76104;HTU21D;64831;44.870;37.336;2023-05-10T15:07:51;13.99;51.14
76104;HTU21D;64831;44.870;37.336;2023-05-10T15:10:18;13.91;51.22
76104;HTU21D;64831;44.870;37.336;2023-05-10T15:12:43;13.85;51.47
76104;HTU21D;64831;44.870;37.336;2023-05-10T15:15:10;13.75;51.56
76104;HTU21D;64831;44.870;37.336;2023-05-10T15:17:35;13.70;51.94
76104;HTU21D;64831;44.870;37.336;2023-05-10T15:20:02;13.65;52.18
76104;HTU21D;64831;44.870;37.336;2023-05-10T15:22:29;13.63;52.33
76104;HTU21D;64831;44.870;37.336;2023-05-10T15:24:58;13.60;52.43
76104;HTU21D;64831;44.870;37.336;2023-05-10T15:27:25;13.58;52.53
76104;HTU21D;64831;44.870;37.336;2023-05-10T15:29:51;13.51;52.49
76104;HTU21D;64831;44.870;37.336;2023-05-10T15:32:17;13.45;52.36
76104;HTU21D;64831;44.870;37.336;2023-05-10T15:34:43;13.37;52.49